KMLI/MLI METAR and TAF weather

Enter ICAO airport designator
Station Type Date Time Source
KMLI METAR 2022/01/29 10:52 UTC NOAA

KMLI 291052Z AUTO 00000KT 10SM SCT025 M14/M17 A3024 RMK AO2 SLP252 T11391172 $


Station Type Date Time Source
KMLI Decoded METAR 2022/01/29 10:52 UTC NOAA

MOLINE QUAD-CITY AIRPORT, IL, United States (KMLI) 41-27N 90-31W 184M
Jan 29, 2022 - 05:52 AM EST / 2022.01.29 1052 UTC
Wind: Calm:0
Visibility: 10 mile(s):0
Sky conditions: partly cloudy
Temperature: 7.0 F (-13.9 C)
Dew Point: 1.0 F (-17.2 C)
Relative Humidity: 76%
Pressure (altimeter): 30.24 in. Hg (1024 hPa)
ob: KMLI 291052Z AUTO 00000KT 10SM SCT025 M14/M17 A3024 RMK AO2 SLP252 T11391172
cycle: 11

Station Type Date Time Source
KMLI TAF 2022/01/29 10:24 UTC NOAA

TAF
AMD KMLI 291022Z 2910/3006 20004KT P6SM SCT100
TEMPO 2910/2912 BKN030

Example: see airport list